Anthony, Texas
Current Conditions -  °F | °C
As of 10:58 AM on Friday 24 Oct 2014 (Local Time) from KBIF Reporting Station
Clear Clear  
Wind Chill: 68°   Ceiling: Unl
Heat Index: 68°   Visibility: 10mi
Dew Point: 53°   Wind: 2mph
Humidity: 58%   Direction: NA
Pressure: 30.28"   Gusts: NA
Location:  32°N, 106.61°W
Report Text: KBIF 241658Z VRB02KT 10SM CLR 20/12 A3028 RMK AO2A SLP205 T02020117
Loading
Personal Weather Stations






























Interactive Weather Map
Tropical Storm Tracking
New forecast layout! Learn more

10-Day Weather Forecast

Advertisements
Track Severe Weather on mobile